sensor_id;sensor_type;location;lat;lon;timestamp;temperature;humidity
78184;DHT22;67442;44.570;18.610;2023-12-22T00:01:09;4.70;99.90
78184;DHT22;67442;44.570;18.610;2023-12-22T00:03:43;5.10;99.90
78184;DHT22;67442;44.570;18.610;2023-12-22T00:06:15;5.20;99.90
78184;DHT22;67442;44.570;18.610;2023-12-22T00:08:42;5.10;99.90
78184;DHT22;67442;44.570;18.610;2023-12-22T00:11:10;5.00;99.90
78184;DHT22;67442;44.570;18.610;2023-12-22T00:13:36;4.90;99.90
78184;DHT22;67442;44.570;18.610;2023-12-22T00:16:04;5.10;99.90
78184;DHT22;67442;44.570;18.610;2023-12-22T00:18:31;5.30;99.90
78184;DHT22;67442;44.570;18.610;2023-12-22T00:20:59;5.40;99.90
78184;DHT22;67442;44.570;18.610;2023-12-22T00:23:26;5.10;99.90
78184;DHT22;67442;44.570;18.610;2023-12-22T00:25:54;5.00;99.90
78184;DHT22;67442;44.570;18.610;2023-12-22T00:28:22;4.90;99.90
78184;DHT22;67442;44.570;18.610;2023-12-22T00:30:53;5.20;99.90
78184;DHT22;67442;44.570;18.610;2023-12-22T00:33:20;5.40;99.90
78184;DHT22;67442;44.570;18.610;2023-12-22T00:35:48;5.60;99.90
78184;DHT22;67442;44.570;18.610;2023-12-22T00:38:15;5.50;99.90
78184;DHT22;67442;44.570;18.610;2023-12-22T00:40:42;5.50;99.90
78184;DHT22;67442;44.570;18.610;2023-12-22T00:43:13;5.50;99.90
78184;DHT22;67442;44.570;18.610;2023-12-22T00:45:41;5.60;99.90
78184;DHT22;67442;44.570;18.610;2023-12-22T00:48:08;5.80;99.90
78184;DHT22;67442;44.570;18.610;2023-12-22T00:50:36;5.80;99.90
78184;DHT22;67442;44.570;18.610;2023-12-22T00:53:04;5.70;99.90
78184;DHT22;67442;44.570;18.610;2023-12-22T00:55:32;5.50;99.90
78184;DHT22;67442;44.570;18.610;2023-12-22T00:57:59;5.60;99.90
78184;DHT22;67442;44.570;18.610;2023-12-22T01:00:30;5.50;99.90
78184;DHT22;67442;44.570;18.610;2023-12-22T01:02:57;5.70;99.90
78184;DHT22;67442;44.570;18.610;2023-12-22T01:05:25;5.90;99.90
78184;DHT22;67442;44.570;18.610;2023-12-22T01:07:53;5.80;99.90
78184;DHT22;67442;44.570;18.610;2023-12-22T01:10:24;5.70;99.90
78184;DHT22;67442;44.570;18.610;2023-12-22T01:12:51;5.60;99.90
78184;DHT22;67442;44.570;18.610;2023-12-22T01:15:18;5.50;99.90
78184;DHT22;67442;44.570;18.610;2023-12-22T01:17:46;5.40;99.90
78184;DHT22;67442;44.570;18.610;2023-12-22T01:20:17;5.40;99.90
78184;DHT22;67442;44.570;18.610;2023-12-22T01:22:45;5.30;99.90
78184;DHT22;67442;44.570;18.610;2023-12-22T01:25:12;5.50;99.90
78184;DHT22;67442;44.570;18.610;2023-12-22T01:27:40;5.30;99.90
78184;DHT22;67442;44.570;18.610;2023-12-22T01:30:07;5.50;99.90
78184;DHT22;67442;44.570;18.610;2023-12-22T01:32:36;5.60;99.90
78184;DHT22;67442;44.570;18.610;2023-12-22T01:35:07;5.40;99.90
78184;DHT22;67442;44.570;18.610;2023-12-22T01:37:37;5.40;99.90
78184;DHT22;67442;44.570;18.610;2023-12-22T01:40:08;5.20;99.90
78184;DHT22;67442;44.570;18.610;2023-12-22T01:42:36;5.10;99.90
78184;DHT22;67442;44.570;18.610;2023-12-22T01:45:07;4.90;99.90
78184;DHT22;67442;44.570;18.610;2023-12-22T01:47:36;4.90;99.90
78184;DHT22;67442;44.570;18.610;2023-12-22T01:50:04;5.20;99.90
78184;DHT22;67442;44.570;18.610;2023-12-22T01:52:32;5.30;99.90
78184;DHT22;67442;44.570;18.610;2023-12-22T01:55:04;5.50;99.90
78184;DHT22;67442;44.570;18.610;2023-12-22T01:57:34;5.60;99.90
78184;DHT22;67442;44.570;18.610;2023-12-22T02:00:03;5.70;99.90
78184;DHT22;67442;44.570;18.610;2023-12-22T02:02:31;5.60;99.90
78184;DHT22;67442;44.570;18.610;2023-12-22T02:04:59;5.70;99.90
78184;DHT22;67442;44.570;18.610;2023-12-22T02:07:26;5.70;99.90
78184;DHT22;67442;44.570;18.610;2023-12-22T02:09:54;5.50;99.90
78184;DHT22;67442;44.570;18.610;2023-12-22T02:12:25;5.20;99.90
78184;DHT22;67442;44.570;18.610;2023-12-22T02:14:52;5.00;99.90
78184;DHT22;67442;44.570;18.610;2023-12-22T02:17:37;5.00;99.90
78184;DHT22;67442;44.570;18.610;2023-12-22T02:20:04;5.10;99.90
78184;DHT22;67442;44.570;18.610;2023-12-22T02:22:34;4.90;99.90
78184;DHT22;67442;44.570;18.610;2023-12-22T02:25:02;4.90;99.90
78184;DHT22;67442;44.570;18.610;2023-12-22T02:33:01;5.50;99.90
78184;DHT22;67442;44.570;18.610;2023-12-22T02:35:33;5.50;99.90
78184;DHT22;67442;44.570;18.610;2023-12-22T02:38:04;5.50;99.90
78184;DHT22;67442;44.570;18.610;2023-12-22T02:40:36;5.50;99.90
78184;DHT22;67442;44.570;18.610;2023-12-22T02:43:05;5.50;99.90
78184;DHT22;67442;44.570;18.610;2023-12-22T02:45:37;5.60;99.90
78184;DHT22;67442;44.570;18.610;2023-12-22T02:48:05;5.50;99.90
78184;DHT22;67442;44.570;18.610;2023-12-22T02:50:33;5.50;99.90
78184;DHT22;67442;44.570;18.610;2023-12-22T02:53:05;5.30;99.90
78184;DHT22;67442;44.570;18.610;2023-12-22T02:55:32;5.30;99.90
78184;DHT22;67442;44.570;18.610;2023-12-22T02:58:00;5.60;99.90
78184;DHT22;67442;44.570;18.610;2023-12-22T03:00:28;5.90;99.90
78184;DHT22;67442;44.570;18.610;2023-12-22T03:02:55;5.70;99.90
78184;DHT22;67442;44.570;18.610;2023-12-22T03:05:26;5.70;99.90
78184;DHT22;67442;44.570;18.610;2023-12-22T03:07:54;5.60;99.90
78184;DHT22;67442;44.570;18.610;2023-12-22T03:10:22;5.40;99.90
78184;DHT22;67442;44.570;18.610;2023-12-22T03:12:49;5.60;99.90
78184;DHT22;67442;44.570;18.610;2023-12-22T03:15:17;5.60;99.90
78184;DHT22;67442;44.570;18.610;2023-12-22T03:17:44;5.70;99.90
78184;DHT22;67442;44.570;18.610;2023-12-22T03:20:12;5.50;99.90
78184;DHT22;67442;44.570;18.610;2023-12-22T03:22:40;5.50;99.90
78184;DHT22;67442;44.570;18.610;2023-12-22T03:25:11;5.60;99.90
78184;DHT22;67442;44.570;18.610;2023-12-22T03:27:39;5.80;99.90
78184;DHT22;67442;44.570;18.610;2023-12-22T03:30:08;5.90;99.90
78184;DHT22;67442;44.570;18.610;2023-12-22T03:32:37;6.10;99.90
78184;DHT22;67442;44.570;18.610;2023-12-22T03:35:08;6.10;99.90
78184;DHT22;67442;44.570;18.610;2023-12-22T03:37:36;6.00;99.90
78184;DHT22;67442;44.570;18.610;2023-12-22T03:40:04;5.80;99.90
78184;DHT22;67442;44.570;18.610;2023-12-22T03:42:32;5.50;99.90
78184;DHT22;67442;44.570;18.610;2023-12-22T03:44:59;5.80;99.90
78184;DHT22;67442;44.570;18.610;2023-12-22T03:47:27;5.90;99.90
78184;DHT22;67442;44.570;18.610;2023-12-22T03:49:58;5.90;99.90
78184;DHT22;67442;44.570;18.610;2023-12-22T03:52:25;6.10;99.90
78184;DHT22;67442;44.570;18.610;2023-12-22T03:54:53;6.10;99.90
78184;DHT22;67442;44.570;18.610;2023-12-22T03:57:20;6.00;99.90
78184;DHT22;67442;44.570;18.610;2023-12-22T03:59:48;5.90;99.90
78184;DHT22;67442;44.570;18.610;2023-12-22T04:02:16;5.70;99.90
78184;DHT22;67442;44.570;18.610;2023-12-22T04:04:44;5.80;99.90
78184;DHT22;67442;44.570;18.610;2023-12-22T04:07:11;6.10;99.90
78184;DHT22;67442;44.570;18.610;2023-12-22T04:09:38;6.30;99.90
78184;DHT22;67442;44.570;18.610;2023-12-22T04:12:06;6.40;99.90
78184;DHT22;67442;44.570;18.610;2023-12-22T04:14:34;6.50;99.90
78184;DHT22;67442;44.570;18.610;2023-12-22T04:17:02;6.40;99.90
78184;DHT22;67442;44.570;18.610;2023-12-22T04:19:30;6.40;99.90
78184;DHT22;67442;44.570;18.610;2023-12-22T04:22:01;6.50;99.90
78184;DHT22;67442;44.570;18.610;2023-12-22T04:24:29;6.50;99.90
78184;DHT22;67442;44.570;18.610;2023-12-22T04:27:00;6.40;99.90
78184;DHT22;67442;44.570;18.610;2023-12-22T04:29:27;6.10;99.90
78184;DHT22;67442;44.570;18.610;2023-12-22T04:31:55;6.10;99.90
78184;DHT22;67442;44.570;18.610;2023-12-22T04:34:22;6.20;99.90
78184;DHT22;67442;44.570;18.610;2023-12-22T04:36:50;6.10;99.90
78184;DHT22;67442;44.570;18.610;2023-12-22T04:39:18;6.30;99.90
78184;DHT22;67442;44.570;18.610;2023-12-22T04:41:45;6.50;99.90
78184;DHT22;67442;44.570;18.610;2023-12-22T04:44:17;6.60;99.90
78184;DHT22;67442;44.570;18.610;2023-12-22T04:46:44;6.60;99.90
78184;DHT22;67442;44.570;18.610;2023-12-22T04:49:15;6.50;99.90
78184;DHT22;67442;44.570;18.610;2023-12-22T04:51:43;6.40;99.90
78184;DHT22;67442;44.570;18.610;2023-12-22T04:54:10;6.20;99.90
78184;DHT22;67442;44.570;18.610;2023-12-22T04:56:37;6.40;99.90
78184;DHT22;67442;44.570;18.610;2023-12-22T04:59:04;6.50;99.90
78184;DHT22;67442;44.570;18.610;2023-12-22T05:01:32;6.40;99.90
78184;DHT22;67442;44.570;18.610;2023-12-22T05:03:59;6.20;99.90
78184;DHT22;67442;44.570;18.610;2023-12-22T05:06:31;6.30;99.90
78184;DHT22;67442;44.570;18.610;2023-12-22T05:08:58;6.30;99.90
78184;DHT22;67442;44.570;18.610;2023-12-22T05:11:26;6.60;99.90
78184;DHT22;67442;44.570;18.610;2023-12-22T05:13:54;6.80;99.90
78184;DHT22;67442;44.570;18.610;2023-12-22T05:16:21;6.90;99.90
78184;DHT22;67442;44.570;18.610;2023-12-22T05:18:49;7.00;99.90
78184;DHT22;67442;44.570;18.610;2023-12-22T05:21:20;7.10;99.90
78184;DHT22;67442;44.570;18.610;2023-12-22T05:23:48;6.80;99.90
78184;DHT22;67442;44.570;18.610;2023-12-22T05:26:19;6.70;99.90
78184;DHT22;67442;44.570;18.610;2023-12-22T05:28:51;6.60;99.90
78184;DHT22;67442;44.570;18.610;2023-12-22T05:31:21;6.50;99.90
78184;DHT22;67442;44.570;18.610;2023-12-22T05:33:49;6.40;99.90
78184;DHT22;67442;44.570;18.610;2023-12-22T05:36:21;6.50;99.90
78184;DHT22;67442;44.570;18.610;2023-12-22T05:38:49;6.50;99.90
78184;DHT22;67442;44.570;18.610;2023-12-22T05:41:16;6.30;99.90
78184;DHT22;67442;44.570;18.610;2023-12-22T05:43:44;6.40;99.90
78184;DHT22;67442;44.570;18.610;2023-12-22T05:46:12;6.50;99.90
78184;DHT22;67442;44.570;18.610;2023-12-22T05:48:39;6.40;99.90
78184;DHT22;67442;44.570;18.610;2023-12-22T05:51:07;6.50;99.90
78184;DHT22;67442;44.570;18.610;2023-12-22T05:53:40;6.50;99.90
78184;DHT22;67442;44.570;18.610;2023-12-22T05:56:18;6.60;99.90
78184;DHT22;67442;44.570;18.610;2023-12-22T05:58:50;6.50;99.90
78184;DHT22;67442;44.570;18.610;2023-12-22T06:01:17;6.50;99.90
78184;DHT22;67442;44.570;18.610;2023-12-22T06:03:45;6.60;99.90
78184;DHT22;67442;44.570;18.610;2023-12-22T06:06:16;6.40;99.90
78184;DHT22;67442;44.570;18.610;2023-12-22T06:08:42;6.40;99.90
78184;DHT22;67442;44.570;18.610;2023-12-22T06:11:09;6.50;99.90
78184;DHT22;67442;44.570;18.610;2023-12-22T06:13:40;6.60;99.90
78184;DHT22;67442;44.570;18.610;2023-12-22T06:16:14;6.50;99.90
78184;DHT22;67442;44.570;18.610;2023-12-22T06:18:42;6.60;99.90
78184;DHT22;67442;44.570;18.610;2023-12-22T06:21:10;6.70;99.90
78184;DHT22;67442;44.570;18.610;2023-12-22T06:23:37;6.80;99.90
78184;DHT22;67442;44.570;18.610;2023-12-22T06:26:11;6.90;99.90
78184;DHT22;67442;44.570;18.610;2023-12-22T06:28:39;6.70;99.90
78184;DHT22;67442;44.570;18.610;2023-12-22T06:31:07;7.00;99.90
78184;DHT22;67442;44.570;18.610;2023-12-22T06:33:35;7.40;99.90
78184;DHT22;67442;44.570;18.610;2023-12-22T06:36:02;7.60;99.90
78184;DHT22;67442;44.570;18.610;2023-12-22T06:38:30;7.70;99.90
78184;DHT22;67442;44.570;18.610;2023-12-22T06:40:58;7.80;99.90
78184;DHT22;67442;44.570;18.610;2023-12-22T06:43:25;7.70;99.90
78184;DHT22;67442;44.570;18.610;2023-12-22T06:45:57;7.70;99.90
78184;DHT22;67442;44.570;18.610;2023-12-22T06:48:25;7.80;99.90
78184;DHT22;67442;44.570;18.610;2023-12-22T06:50:58;7.70;99.90
78184;DHT22;67442;44.570;18.610;2023-12-22T06:53:25;7.70;99.90
78184;DHT22;67442;44.570;18.610;2023-12-22T06:55:53;7.50;99.90
78184;DHT22;67442;44.570;18.610;2023-12-22T06:58:21;7.60;99.90
78184;DHT22;67442;44.570;18.610;2023-12-22T07:00:53;7.30;99.90
78184;DHT22;67442;44.570;18.610;2023-12-22T07:03:23;7.40;99.90
78184;DHT22;67442;44.570;18.610;2023-12-22T07:05:50;7.30;99.90
78184;DHT22;67442;44.570;18.610;2023-12-22T07:08:18;7.30;99.90
78184;DHT22;67442;44.570;18.610;2023-12-22T07:10:49;7.20;99.90
78184;DHT22;67442;44.570;18.610;2023-12-22T07:13:20;7.10;99.90
78184;DHT22;67442;44.570;18.610;2023-12-22T07:15:51;7.20;99.90
78184;DHT22;67442;44.570;18.610;2023-12-22T07:18:18;7.10;99.90
78184;DHT22;67442;44.570;18.610;2023-12-22T07:20:46;6.90;99.90
78184;DHT22;67442;44.570;18.610;2023-12-22T07:23:14;6.80;99.90
78184;DHT22;67442;44.570;18.610;2023-12-22T07:25:41;6.80;99.90
78184;DHT22;67442;44.570;18.610;2023-12-22T07:28:09;6.80;99.90
78184;DHT22;67442;44.570;18.610;2023-12-22T07:30:37;7.00;99.90
78184;DHT22;67442;44.570;18.610;2023-12-22T07:33:05;7.00;99.90
78184;DHT22;67442;44.570;18.610;2023-12-22T07:35:32;7.20;99.90
78184;DHT22;67442;44.570;18.610;2023-12-22T07:38:01;7.30;99.90
78184;DHT22;67442;44.570;18.610;2023-12-22T07:40:29;7.40;99.90
78184;DHT22;67442;44.570;18.610;2023-12-22T07:42:59;7.40;99.90
78184;DHT22;67442;44.570;18.610;2023-12-22T07:45:26;7.60;99.90
78184;DHT22;67442;44.570;18.610;2023-12-22T07:47:53;7.60;99.90
78184;DHT22;67442;44.570;18.610;2023-12-22T07:50:21;7.60;99.90
78184;DHT22;67442;44.570;18.610;2023-12-22T07:52:48;8.00;99.90
78184;DHT22;67442;44.570;18.610;2023-12-22T07:55:16;8.10;99.90
78184;DHT22;67442;44.570;18.610;2023-12-22T07:57:45;8.30;99.90
78184;DHT22;67442;44.570;18.610;2023-12-22T08:00:16;8.00;99.90
78184;DHT22;67442;44.570;18.610;2023-12-22T08:02:43;8.40;99.90
78184;DHT22;67442;44.570;18.610;2023-12-22T08:05:10;8.30;99.90
78184;DHT22;67442;44.570;18.610;2023-12-22T08:07:37;8.50;99.90
78184;DHT22;67442;44.570;18.610;2023-12-22T08:10:09;8.20;99.90
78184;DHT22;67442;44.570;18.610;2023-12-22T08:12:37;8.20;99.90
78184;DHT22;67442;44.570;18.610;2023-12-22T08:15:08;8.20;99.90
78184;DHT22;67442;44.570;18.610;2023-12-22T08:17:58;8.40;99.90
78184;DHT22;67442;44.570;18.610;2023-12-22T08:20:26;8.10;99.90
78184;DHT22;67442;44.570;18.610;2023-12-22T08:22:53;8.20;99.90
78184;DHT22;67442;44.570;18.610;2023-12-22T08:25:21;8.30;99.90
78184;DHT22;67442;44.570;18.610;2023-12-22T08:27:49;8.20;99.90
78184;DHT22;67442;44.570;18.610;2023-12-22T08:30:16;8.30;99.90
78184;DHT22;67442;44.570;18.610;2023-12-22T08:32:47;8.40;99.90
78184;DHT22;67442;44.570;18.610;2023-12-22T08:35:15;8.50;99.90
78184;DHT22;67442;44.570;18.610;2023-12-22T08:37:43;8.50;99.90
78184;DHT22;67442;44.570;18.610;2023-12-22T08:40:11;8.60;99.90
78184;DHT22;67442;44.570;18.610;2023-12-22T08:42:38;8.60;99.90
78184;DHT22;67442;44.570;18.610;2023-12-22T08:45:07;8.60;99.90
78184;DHT22;67442;44.570;18.610;2023-12-22T08:47:36;8.60;99.90
78184;DHT22;67442;44.570;18.610;2023-12-22T08:50:02;8.60;99.90
78184;DHT22;67442;44.570;18.610;2023-12-22T08:52:31;8.50;99.90
78184;DHT22;67442;44.570;18.610;2023-12-22T08:54:58;8.30;99.90
78184;DHT22;67442;44.570;18.610;2023-12-22T08:57:26;8.10;99.90
78184;DHT22;67442;44.570;18.610;2023-12-22T08:59:57;8.10;99.90
78184;DHT22;67442;44.570;18.610;2023-12-22T09:02:25;8.20;99.90
78184;DHT22;67442;44.570;18.610;2023-12-22T09:04:53;8.10;99.90
78184;DHT22;67442;44.570;18.610;2023-12-22T09:07:20;7.70;99.90
78184;DHT22;67442;44.570;18.610;2023-12-22T09:09:53;7.80;99.90
78184;DHT22;67442;44.570;18.610;2023-12-22T09:12:25;7.70;99.90
78184;DHT22;67442;44.570;18.610;2023-12-22T09:14:56;7.90;99.90
78184;DHT22;67442;44.570;18.610;2023-12-22T09:17:28;8.00;99.90
78184;DHT22;67442;44.570;18.610;2023-12-22T09:19:59;8.10;99.90
78184;DHT22;67442;44.570;18.610;2023-12-22T09:22:30;8.10;99.90
78184;DHT22;67442;44.570;18.610;2023-12-22T09:25:02;8.30;99.90
78184;DHT22;67442;44.570;18.610;2023-12-22T09:27:30;8.00;99.90
78184;DHT22;67442;44.570;18.610;2023-12-22T09:30:01;7.90;99.90
78184;DHT22;67442;44.570;18.610;2023-12-22T09:32:29;7.90;99.90
78184;DHT22;67442;44.570;18.610;2023-12-22T09:34:57;8.00;99.90
78184;DHT22;67442;44.570;18.610;2023-12-22T09:37:25;8.00;99.90
78184;DHT22;67442;44.570;18.610;2023-12-22T09:39:53;7.90;99.90
78184;DHT22;67442;44.570;18.610;2023-12-22T09:42:21;7.80;99.90
78184;DHT22;67442;44.570;18.610;2023-12-22T09:44:49;7.70;99.90
78184;DHT22;67442;44.570;18.610;2023-12-22T09:47:21;8.10;99.90
78184;DHT22;67442;44.570;18.610;2023-12-22T09:49:50;8.50;99.90
78184;DHT22;67442;44.570;18.610;2023-12-22T09:52:19;8.90;99.90
78184;DHT22;67442;44.570;18.610;2023-12-22T09:54:50;9.30;99.90
78184;DHT22;67442;44.570;18.610;2023-12-22T09:57:20;9.60;99.90
78184;DHT22;67442;44.570;18.610;2023-12-22T09:59:49;9.80;99.90
78184;DHT22;67442;44.570;18.610;2023-12-22T10:02:18;9.70;99.90
78184;DHT22;67442;44.570;18.610;2023-12-22T10:04:45;9.60;99.90
78184;DHT22;67442;44.570;18.610;2023-12-22T10:07:12;9.80;99.90
78184;DHT22;67442;44.570;18.610;2023-12-22T10:09:44;9.90;99.90
78184;DHT22;67442;44.570;18.610;2023-12-22T10:12:12;9.80;99.90
78184;DHT22;67442;44.570;18.610;2023-12-22T10:14:43;9.30;99.90
78184;DHT22;67442;44.570;18.610;2023-12-22T10:17:11;9.10;99.90
78184;DHT22;67442;44.570;18.610;2023-12-22T10:19:43;9.10;99.90
78184;DHT22;67442;44.570;18.610;2023-12-22T10:22:10;9.40;99.90
78184;DHT22;67442;44.570;18.610;2023-12-22T10:24:46;9.30;99.90
78184;DHT22;67442;44.570;18.610;2023-12-22T10:27:18;9.50;99.90
78184;DHT22;67442;44.570;18.610;2023-12-22T10:29:55;9.30;99.90
78184;DHT22;67442;44.570;18.610;2023-12-22T10:32:23;9.40;99.90
78184;DHT22;67442;44.570;18.610;2023-12-22T10:34:53;8.90;99.90
78184;DHT22;67442;44.570;18.610;2023-12-22T10:37:26;9.10;99.90
78184;DHT22;67442;44.570;18.610;2023-12-22T10:39:54;9.30;99.90
78184;DHT22;67442;44.570;18.610;2023-12-22T10:42:21;9.50;99.90
78184;DHT22;67442;44.570;18.610;2023-12-22T10:44:49;9.90;99.90
78184;DHT22;67442;44.570;18.610;2023-12-22T10:47:17;9.80;99.90
78184;DHT22;67442;44.570;18.610;2023-12-22T10:49:46;9.30;99.90
78184;DHT22;67442;44.570;18.610;2023-12-22T10:52:17;9.10;99.90
78184;DHT22;67442;44.570;18.610;2023-12-22T10:54:44;9.30;99.90
78184;DHT22;67442;44.570;18.610;2023-12-22T10:57:17;9.50;99.90
78184;DHT22;67442;44.570;18.610;2023-12-22T11:00:05;9.30;99.90
78184;DHT22;67442;44.570;18.610;2023-12-22T11:02:35;9.30;99.90
78184;DHT22;67442;44.570;18.610;2023-12-22T11:05:11;9.10;99.90
78184;DHT22;67442;44.570;18.610;2023-12-22T11:07:39;9.00;99.90
78184;DHT22;67442;44.570;18.610;2023-12-22T11:10:11;9.00;99.90
78184;DHT22;67442;44.570;18.610;2023-12-22T11:12:44;9.00;99.90
78184;DHT22;67442;44.570;18.610;2023-12-22T11:15:15;9.30;99.90
78184;DHT22;67442;44.570;18.610;2023-12-22T11:17:46;9.30;99.90
78184;DHT22;67442;44.570;18.610;2023-12-22T11:20:15;9.20;99.90
78184;DHT22;67442;44.570;18.610;2023-12-22T11:22:42;9.30;99.90
78184;DHT22;67442;44.570;18.610;2023-12-22T11:25:10;9.70;99.90
78184;DHT22;67442;44.570;18.610;2023-12-22T11:27:37;9.60;99.90
78184;DHT22;67442;44.570;18.610;2023-12-22T11:30:06;9.70;99.90
78184;DHT22;67442;44.570;18.610;2023-12-22T11:32:35;9.60;99.90
78184;DHT22;67442;44.570;18.610;2023-12-22T11:35:07;9.60;99.90
78184;DHT22;67442;44.570;18.610;2023-12-22T11:37:36;9.20;99.90
78184;DHT22;67442;44.570;18.610;2023-12-22T11:40:09;9.10;99.90
78184;DHT22;67442;44.570;18.610;2023-12-22T11:42:41;9.00;99.90
78184;DHT22;67442;44.570;18.610;2023-12-22T11:45:11;8.90;99.90
78184;DHT22;67442;44.570;18.610;2023-12-22T11:47:44;8.60;99.90
78184;DHT22;67442;44.570;18.610;2023-12-22T11:50:13;8.40;99.90
78184;DHT22;67442;44.570;18.610;2023-12-22T11:52:55;8.20;99.90
78184;DHT22;67442;44.570;18.610;2023-12-22T12:01:12;8.50;99.90
78184;DHT22;67442;44.570;18.610;2023-12-22T12:04:02;8.30;99.90
78184;DHT22;67442;44.570;18.610;2023-12-22T12:09:03;8.30;99.90
78184;DHT22;67442;44.570;18.610;2023-12-22T12:14:33;8.50;99.90
78184;DHT22;67442;44.570;18.610;2023-12-22T12:17:07;8.80;99.90
78184;DHT22;67442;44.570;18.610;2023-12-22T12:19:38;8.90;99.90
78184;DHT22;67442;44.570;18.610;2023-12-22T12:22:13;9.10;99.90
78184;DHT22;67442;44.570;18.610;2023-12-22T12:24:41;9.20;99.90
78184;DHT22;67442;44.570;18.610;2023-12-22T12:27:18;9.10;99.90
78184;DHT22;67442;44.570;18.610;2023-12-22T12:29:46;9.40;99.90
78184;DHT22;67442;44.570;18.610;2023-12-22T12:32:17;9.50;99.90
78184;DHT22;67442;44.570;18.610;2023-12-22T12:34:45;9.70;99.90
78184;DHT22;67442;44.570;18.610;2023-12-22T12:37:16;9.90;99.90
78184;DHT22;67442;44.570;18.610;2023-12-22T12:39:48;10.20;99.90
78184;DHT22;67442;44.570;18.610;2023-12-22T12:42:20;10.60;99.90
78184;DHT22;67442;44.570;18.610;2023-12-22T12:44:49;10.80;98.60
78184;DHT22;67442;44.570;18.610;2023-12-22T12:47:19;10.80;98.20
78184;DHT22;67442;44.570;18.610;2023-12-22T12:50:22;10.60;98.90
78184;DHT22;67442;44.570;18.610;2023-12-22T12:52:53;10.40;98.80
78184;DHT22;67442;44.570;18.610;2023-12-22T12:55:24;10.50;99.00
78184;DHT22;67442;44.570;18.610;2023-12-22T12:57:56;10.60;98.20
78184;DHT22;67442;44.570;18.610;2023-12-22T13:00:26;10.70;97.60
78184;DHT22;67442;44.570;18.610;2023-12-22T13:03:00;10.50;98.30
78184;DHT22;67442;44.570;18.610;2023-12-22T13:05:44;10.50;98.70
78184;DHT22;67442;44.570;18.610;2023-12-22T13:08:12;10.20;99.90
78184;DHT22;67442;44.570;18.610;2023-12-22T13:10:40;10.30;99.10
78184;DHT22;67442;44.570;18.610;2023-12-22T13:13:11;10.60;98.10
78184;DHT22;67442;44.570;18.610;2023-12-22T13:15:40;10.60;98.30
78184;DHT22;67442;44.570;18.610;2023-12-22T13:18:09;10.40;99.20
78184;DHT22;67442;44.570;18.610;2023-12-22T13:20:35;10.30;98.80
78184;DHT22;67442;44.570;18.610;2023-12-22T13:23:02;10.20;98.70
78184;DHT22;67442;44.570;18.610;2023-12-22T13:25:40;10.20;99.50
78184;DHT22;67442;44.570;18.610;2023-12-22T13:28:28;10.40;99.90
78184;DHT22;67442;44.570;18.610;2023-12-22T13:31:00;10.50;99.30
78184;DHT22;67442;44.570;18.610;2023-12-22T13:33:31;10.20;98.70
78184;DHT22;67442;44.570;18.610;2023-12-22T13:36:00;10.30;99.50
78184;DHT22;67442;44.570;18.610;2023-12-22T13:38:27;10.30;98.80
78184;DHT22;67442;44.570;18.610;2023-12-22T13:40:58;10.20;98.70
78184;DHT22;67442;44.570;18.610;2023-12-22T13:43:32;10.30;99.50
78184;DHT22;67442;44.570;18.610;2023-12-22T13:46:04;10.40;99.90
78184;DHT22;67442;44.570;18.610;2023-12-22T13:48:34;10.50;99.90
78184;DHT22;67442;44.570;18.610;2023-12-22T13:51:01;10.20;99.90
78184;DHT22;67442;44.570;18.610;2023-12-22T13:53:29;9.70;99.90
78184;DHT22;67442;44.570;18.610;2023-12-22T13:56:00;9.40;99.90
78184;DHT22;67442;44.570;18.610;2023-12-22T13:58:27;9.00;99.90
78184;DHT22;67442;44.570;18.610;2023-12-22T14:00:53;9.00;99.90
78184;DHT22;67442;44.570;18.610;2023-12-22T14:03:26;9.30;99.90
78184;DHT22;67442;44.570;18.610;2023-12-22T14:05:54;9.60;99.90
78184;DHT22;67442;44.570;18.610;2023-12-22T14:08:25;9.70;99.90
78184;DHT22;67442;44.570;18.610;2023-12-22T14:10:59;9.20;99.90
78184;DHT22;67442;44.570;18.610;2023-12-22T14:13:31;9.20;99.90
78184;DHT22;67442;44.570;18.610;2023-12-22T14:15:59;9.10;99.90
78184;DHT22;67442;44.570;18.610;2023-12-22T14:18:27;8.90;99.90
78184;DHT22;67442;44.570;18.610;2023-12-22T14:20:54;8.70;99.90
78184;DHT22;67442;44.570;18.610;2023-12-22T14:23:21;8.60;99.90
78184;DHT22;67442;44.570;18.610;2023-12-22T14:25:49;8.40;99.90
78184;DHT22;67442;44.570;18.610;2023-12-22T14:28:23;8.10;99.90
78184;DHT22;67442;44.570;18.610;2023-12-22T14:30:55;7.80;99.90
78184;DHT22;67442;44.570;18.610;2023-12-22T14:33:22;7.50;99.90
78184;DHT22;67442;44.570;18.610;2023-12-22T14:35:50;7.70;99.90
78184;DHT22;67442;44.570;18.610;2023-12-22T14:38:17;7.50;99.90
78184;DHT22;67442;44.570;18.610;2023-12-22T14:40:44;7.40;99.90
78184;DHT22;67442;44.570;18.610;2023-12-22T14:43:15;7.30;99.90
78184;DHT22;67442;44.570;18.610;2023-12-22T14:45:46;7.60;99.90
78184;DHT22;67442;44.570;18.610;2023-12-22T14:48:14;7.80;99.90
78184;DHT22;67442;44.570;18.610;2023-12-22T14:50:42;8.00;99.90
78184;DHT22;67442;44.570;18.610;2023-12-22T14:53:13;8.10;99.90
78184;DHT22;67442;44.570;18.610;2023-12-22T14:55:42;7.70;99.90
78184;DHT22;67442;44.570;18.610;2023-12-22T14:58:13;7.30;99.90
78184;DHT22;67442;44.570;18.610;2023-12-22T15:00:45;7.00;99.90
78184;DHT22;67442;44.570;18.610;2023-12-22T15:03:16;6.70;99.90
78184;DHT22;67442;44.570;18.610;2023-12-22T15:05:47;6.50;99.90
78184;DHT22;67442;44.570;18.610;2023-12-22T15:08:15;6.50;99.90
78184;DHT22;67442;44.570;18.610;2023-12-22T15:10:43;6.40;99.90
78184;DHT22;67442;44.570;18.610;2023-12-22T15:13:10;6.20;99.90
78184;DHT22;67442;44.570;18.610;2023-12-22T15:15:42;6.10;99.90
78184;DHT22;67442;44.570;18.610;2023-12-22T15:18:09;6.30;99.90
78184;DHT22;67442;44.570;18.610;2023-12-22T15:20:41;6.10;99.90
78184;DHT22;67442;44.570;18.610;2023-12-22T15:23:08;5.90;99.90
78184;DHT22;67442;44.570;18.610;2023-12-22T15:25:36;6.00;99.90
78184;DHT22;67442;44.570;18.610;2023-12-22T15:28:04;6.00;99.90
78184;DHT22;67442;44.570;18.610;2023-12-22T15:30:35;5.80;99.90
78184;DHT22;67442;44.570;18.610;2023-12-22T15:33:06;5.60;99.90
78184;DHT22;67442;44.570;18.610;2023-12-22T15:35:37;5.70;99.90
78184;DHT22;67442;44.570;18.610;2023-12-22T15:38:04;5.80;99.90
78184;DHT22;67442;44.570;18.610;2023-12-22T15:40:32;5.90;99.90
78184;DHT22;67442;44.570;18.610;2023-12-22T15:42:59;5.70;99.90
78184;DHT22;67442;44.570;18.610;2023-12-22T15:45:27;5.20;99.90
78184;DHT22;67442;44.570;18.610;2023-12-22T15:47:55;5.30;99.90
78184;DHT22;67442;44.570;18.610;2023-12-22T15:50:26;5.40;99.90
78184;DHT22;67442;44.570;18.610;2023-12-22T15:52:54;5.20;99.90
78184;DHT22;67442;44.570;18.610;2023-12-22T15:55:22;5.40;99.90
78184;DHT22;67442;44.570;18.610;2023-12-22T15:57:49;5.30;99.90
78184;DHT22;67442;44.570;18.610;2023-12-22T16:00:20;5.20;99.90